createdAt,value
2019-02-23T00:00:40.449Z,2.20
2019-02-23T00:03:06.656Z,2.20
2019-02-23T00:05:32.800Z,2.20
2019-02-23T00:07:59.003Z,2.20
2019-02-23T00:10:25.141Z,2.10
2019-02-23T00:12:51.428Z,2.10
2019-02-23T00:15:17.559Z,2.00
2019-02-23T00:17:43.679Z,2.00
2019-02-23T00:20:09.900Z,1.90
2019-02-23T00:22:36.070Z,1.90
2019-02-23T00:25:02.172Z,1.90
2019-02-23T00:27:28.312Z,1.90
2019-02-23T00:29:54.545Z,1.90
2019-02-23T00:32:20.656Z,1.90
2019-02-23T00:34:46.819Z,1.90
2019-02-23T00:37:12.932Z,1.80
2019-02-23T00:39:39.091Z,1.80
2019-02-23T00:42:05.210Z,1.70
2019-02-23T00:44:31.325Z,1.80
2019-02-23T00:46:57.525Z,1.70
2019-02-23T00:49:23.768Z,1.70
2019-02-23T00:51:51.802Z,1.60
2019-02-23T00:54:17.910Z,1.50
2019-02-23T00:56:44.051Z,1.50
2019-02-23T00:59:10.183Z,1.50
2019-02-23T01:01:36.313Z,1.50
2019-02-23T01:04:02.421Z,1.60
2019-02-23T01:06:28.550Z,1.60
2019-02-23T01:08:54.656Z,1.60
2019-02-23T01:11:20.889Z,1.50
2019-02-23T01:13:47.145Z,1.50
2019-02-23T01:16:13.267Z,1.50
2019-02-23T01:18:39.476Z,1.40
2019-02-23T01:21:05.719Z,1.40
2019-02-23T01:23:31.952Z,1.40
2019-02-23T01:26:17.921Z,1.40
2019-02-23T01:28:44.036Z,1.40
2019-02-23T01:31:10.264Z,1.40
2019-02-23T01:33:36.523Z,1.40
2019-02-23T01:36:02.774Z,1.30
2019-02-23T01:38:28.937Z,1.30
2019-02-23T01:40:55.043Z,1.30
2019-02-23T01:43:21.154Z,1.30
2019-02-23T01:45:47.297Z,1.30
2019-02-23T01:48:13.518Z,1.20
2019-02-23T01:50:39.740Z,1.20
2019-02-23T01:53:05.880Z,1.10
2019-02-23T01:55:32.008Z,1.10
2019-02-23T01:57:58.217Z,1.10
2019-02-23T02:00:25.071Z,1.10
2019-02-23T02:02:51.228Z,1.10
2019-02-23T02:05:17.459Z,1.00
2019-02-23T02:07:43.602Z,1.00
2019-02-23T02:10:10.718Z,1.00
2019-02-23T02:12:37.082Z,1.00
2019-02-23T02:15:04.803Z,1.00
2019-02-23T02:17:31.064Z,1.00
2019-02-23T02:19:57.187Z,0.90
2019-02-23T02:22:23.460Z,0.90
2019-02-23T02:24:49.605Z,0.90
2019-02-23T02:27:15.761Z,0.90
2019-02-23T02:29:41.879Z,0.80
2019-02-23T02:32:08.032Z,0.80
2019-02-23T02:34:34.237Z,0.70
2019-02-23T02:37:00.374Z,0.80
2019-02-23T02:39:26.504Z,0.70
2019-02-23T02:41:52.633Z,0.70
2019-02-23T02:44:18.745Z,0.70
2019-02-23T02:46:44.962Z,0.70
2019-02-23T02:49:11.199Z,0.70
2019-02-23T02:51:37.348Z,0.70
2019-02-23T02:54:03.562Z,0.60
2019-02-23T02:56:29.677Z,0.60
2019-02-23T02:58:55.824Z,0.60
2019-02-23T03:01:21.938Z,0.60
2019-02-23T03:03:48.076Z,0.60
2019-02-23T03:06:14.213Z,0.50
2019-02-23T03:08:40.336Z,0.50
2019-02-23T03:11:06.629Z,0.50
2019-02-23T03:13:32.876Z,0.50
2019-02-23T03:15:59.118Z,0.50
2019-02-23T03:18:25.255Z,0.40
2019-02-23T03:20:51.389Z,0.40
2019-02-23T03:23:17.635Z,0.40
2019-02-23T03:25:43.785Z,0.40
2019-02-23T03:28:09.903Z,0.30
2019-02-23T03:30:36.049Z,0.40
2019-02-23T03:33:02.301Z,0.40
2019-02-23T03:35:28.451Z,0.30
2019-02-23T03:37:54.611Z,0.30
2019-02-23T03:40:20.754Z,0.30
2019-02-23T03:42:46.850Z,0.30
2019-02-23T03:45:12.985Z,0.20
2019-02-23T03:47:39.124Z,0.20
2019-02-23T03:50:05.846Z,0.20
2019-02-23T03:52:32.154Z,0.10
2019-02-23T03:54:58.371Z,0.00
2019-02-23T03:57:24.588Z,0.10
2019-02-23T03:59:50.824Z,0.10
2019-02-23T04:02:16.973Z,0.10
2019-02-23T04:04:43.177Z,0.10
2019-02-23T04:07:09.344Z,0.10
2019-02-23T04:09:35.468Z,0.00
2019-02-23T04:12:01.689Z,-0.10
2019-02-23T04:14:27.868Z,-0.10
2019-02-23T04:16:53.970Z,0.00
2019-02-23T04:19:20.094Z,0.00
2019-02-23T04:21:46.255Z,0.00
2019-02-23T04:24:12.364Z,-0.10
2019-02-23T04:26:38.483Z,-0.10
2019-02-23T04:29:04.632Z,-0.10
2019-02-23T04:31:30.744Z,-0.20
2019-02-23T04:33:56.975Z,-0.20
2019-02-23T04:36:23.077Z,-0.20
2019-02-23T04:38:49.182Z,-0.20
2019-02-23T04:41:15.329Z,-0.20
2019-02-23T04:43:44.114Z,-0.20
2019-02-23T04:46:09.504Z,-0.20
2019-02-23T04:48:35.624Z,-0.20
2019-02-23T04:51:13.451Z,-0.20
2019-02-23T04:53:29.822Z,-0.20
2019-02-23T04:55:56.026Z,-0.30
2019-02-23T04:58:22.179Z,-0.30
2019-02-23T05:00:48.368Z,-0.30
2019-02-23T05:03:14.567Z,-0.20
2019-02-23T05:05:40.689Z,-0.20
2019-02-23T05:08:06.850Z,-0.20
2019-02-23T05:10:33.072Z,-0.20
2019-02-23T05:12:59.209Z,-0.20
2019-02-23T05:15:25.493Z,-0.20
2019-02-23T05:17:51.601Z,-0.20
2019-02-23T05:20:17.713Z,-0.20
2019-02-23T05:22:43.867Z,-0.20
2019-02-23T05:25:10.004Z,-0.20
2019-02-23T05:27:36.136Z,-0.20
2019-02-23T05:30:02.581Z,-0.20
2019-02-23T05:32:28.787Z,-0.20
2019-02-23T05:34:55.030Z,-0.20
2019-02-23T05:37:21.302Z,-0.20
2019-02-23T05:39:47.542Z,-0.30
2019-02-23T05:42:13.773Z,-0.30
2019-02-23T05:44:40.024Z,-0.30
2019-02-23T05:47:06.250Z,-0.30
2019-02-23T05:49:32.423Z,-0.40
2019-02-23T05:51:58.552Z,-0.40
2019-02-23T05:54:24.716Z,-0.40
2019-02-23T05:56:50.936Z,-0.40
2019-02-23T05:59:17.230Z,-0.40
2019-02-23T06:01:43.502Z,-0.40
2019-02-23T06:04:09.604Z,-0.40
2019-02-23T06:06:35.738Z,-0.40
2019-02-23T06:09:02.254Z,-0.40
2019-02-23T06:11:28.487Z,-0.40
2019-02-23T06:13:54.734Z,-0.40
2019-02-23T06:16:20.863Z,-0.40
2019-02-23T06:18:48.217Z,-0.40
2019-02-23T06:21:14.430Z,-0.50
2019-02-23T06:23:40.552Z,-0.50
2019-02-23T06:26:06.823Z,-0.50
2019-02-23T06:28:32.939Z,-0.40
2019-02-23T06:30:59.371Z,-0.40
2019-02-23T06:33:25.521Z,-0.40
2019-02-23T06:35:51.724Z,-0.40
2019-02-23T06:38:17.884Z,-0.40
2019-02-23T06:40:44.163Z,-0.40
2019-02-23T06:43:10.336Z,-0.40
2019-02-23T06:45:36.565Z,-0.40
2019-02-23T06:48:04.814Z,-0.30
2019-02-23T06:50:35.742Z,-0.30
2019-02-23T06:53:02.023Z,-0.40
2019-02-23T06:55:28.145Z,-0.30
2019-02-23T06:57:54.413Z,-0.30
2019-02-23T07:00:20.601Z,-0.30
2019-02-23T07:02:46.869Z,-0.40
2019-02-23T07:05:13.230Z,-0.40
2019-02-23T07:07:39.440Z,-0.40
2019-02-23T07:10:07.391Z,-0.30
2019-02-23T07:12:33.671Z,-0.30
2019-02-23T07:14:59.812Z,-0.30
2019-02-23T07:17:26.103Z,-0.20
2019-02-23T07:19:52.207Z,-0.20
2019-02-23T07:22:18.468Z,-0.10
2019-02-23T07:24:44.625Z,-0.10
2019-02-23T07:27:10.743Z,-0.10
2019-02-23T07:29:36.889Z,0.00
2019-02-23T07:32:03.206Z,0.00
2019-02-23T07:34:29.402Z,0.10
2019-02-23T07:36:55.496Z,0.20
2019-02-23T07:39:21.624Z,0.20
2019-02-23T07:41:47.869Z,0.20
2019-02-23T07:44:14.054Z,0.20
2019-02-23T07:46:40.177Z,0.30
2019-02-23T07:49:06.295Z,0.30
2019-02-23T07:51:32.463Z,0.40
2019-02-23T07:53:58.799Z,0.50
2019-02-23T07:56:25.013Z,0.50
2019-02-23T07:58:51.260Z,0.60
2019-02-23T08:01:17.369Z,0.60
2019-02-23T08:03:43.567Z,0.70
2019-02-23T08:06:09.663Z,0.70
2019-02-23T08:08:35.780Z,0.70
2019-02-23T08:11:01.997Z,0.70
2019-02-23T08:13:28.104Z,0.80
2019-02-23T08:15:54.220Z,0.80
2019-02-23T08:18:20.475Z,0.80
2019-02-23T08:20:46.575Z,0.80
2019-02-23T08:23:12.801Z,0.80
2019-02-23T08:25:39.118Z,0.90
2019-02-23T08:28:42.730Z,1.00
2019-02-23T08:31:08.878Z,1.10
2019-02-23T08:33:35.027Z,1.20
2019-02-23T08:36:01.152Z,1.20
2019-02-23T08:38:27.276Z,1.30
2019-02-23T08:40:53.416Z,1.30
2019-02-23T08:43:24.600Z,1.30
2019-02-23T08:45:50.926Z,1.40
2019-02-23T08:48:17.199Z,1.90
2019-02-23T08:50:43.460Z,2.20
2019-02-23T08:53:09.763Z,2.30
2019-02-23T08:55:36.080Z,2.40
2019-02-23T08:58:02.337Z,2.40
2019-02-23T09:00:28.888Z,2.30
2019-02-23T09:02:55.149Z,2.40
2019-02-23T09:05:21.453Z,2.40
2019-02-23T09:07:47.737Z,2.50
2019-02-23T09:10:14.332Z,2.40
2019-02-23T09:12:40.571Z,2.40
2019-02-23T09:15:08.024Z,2.40
2019-02-23T09:17:34.413Z,2.30
2019-02-23T09:20:00.661Z,2.50
2019-02-23T09:22:27.015Z,2.50
2019-02-23T09:24:53.301Z,2.60
2019-02-23T09:27:19.551Z,2.50
2019-02-23T09:29:45.851Z,2.60
2019-02-23T09:32:12.095Z,2.60
2019-02-23T09:34:38.353Z,2.60
2019-02-23T09:37:04.757Z,2.60
2019-02-23T09:39:31.032Z,2.80
2019-02-23T09:42:07.021Z,2.90
2019-02-23T09:44:25.405Z,2.90
2019-02-23T09:46:51.631Z,3.00
2019-02-23T09:49:17.922Z,3.10
2019-02-23T09:51:44.176Z,3.10
2019-02-23T09:54:10.423Z,3.00
2019-02-23T09:56:36.719Z,3.10
2019-02-23T09:59:02.959Z,3.10
2019-02-23T10:01:29.213Z,3.20
2019-02-23T10:03:55.516Z,3.30
2019-02-23T10:06:21.771Z,3.30
2019-02-23T10:08:48.033Z,3.40
2019-02-23T10:11:14.319Z,3.50
2019-02-23T10:13:40.574Z,3.60
2019-02-23T10:16:06.965Z,3.70
2019-02-23T10:18:33.243Z,3.70
2019-02-23T10:20:59.529Z,3.60
2019-02-23T10:23:25.776Z,3.80
2019-02-23T10:25:52.038Z,3.80
2019-02-23T10:28:18.302Z,3.80
2019-02-23T10:30:44.563Z,3.90
2019-02-23T10:33:10.825Z,3.90
2019-02-23T10:35:37.116Z,4.00
2019-02-23T10:38:03.475Z,4.10
2019-02-23T10:40:29.752Z,4.10
2019-02-23T10:42:56.016Z,4.10
2019-02-23T10:45:22.284Z,4.20
2019-02-23T10:47:50.193Z,4.30
2019-02-23T10:50:16.848Z,4.30
2019-02-23T10:52:43.308Z,4.40
2019-02-23T10:55:13.680Z,4.40
2019-02-23T10:57:40.030Z,4.50
2019-02-23T11:00:24.507Z,4.50
2019-02-23T11:02:50.859Z,4.50
2019-02-23T11:05:18.409Z,4.50
2019-02-23T11:07:44.788Z,4.60
2019-02-23T11:10:11.241Z,4.60
2019-02-23T11:12:37.623Z,4.70
2019-02-23T11:15:07.196Z,4.70
2019-02-23T11:17:33.439Z,4.80
2019-02-23T11:19:59.824Z,4.80
2019-02-23T11:22:26.221Z,4.90
2019-02-23T11:24:52.466Z,4.80
2019-02-23T11:27:18.844Z,5.00
2019-02-23T11:29:45.115Z,5.00
2019-02-23T11:32:11.364Z,5.00
2019-02-23T11:34:37.879Z,5.10
2019-02-23T11:37:04.138Z,5.10
2019-02-23T11:39:50.283Z,5.10
2019-02-23T11:42:16.538Z,5.20
2019-02-23T11:44:43.198Z,5.20
2019-02-23T11:47:09.542Z,5.30
2019-02-23T11:49:35.784Z,5.40
2019-02-23T11:52:02.164Z,5.30
2019-02-23T11:54:28.521Z,5.30
2019-02-23T11:56:54.779Z,5.50
2019-02-23T11:59:21.164Z,5.50
2019-02-23T12:01:47.441Z,5.40
2019-02-23T12:04:13.791Z,5.50
2019-02-23T12:06:40.053Z,5.70
2019-02-23T12:09:06.731Z,5.80
2019-02-23T12:11:32.983Z,5.70
2019-02-23T12:13:59.276Z,5.60
2019-02-23T12:16:25.546Z,5.70
2019-02-23T12:18:51.796Z,5.80
2019-02-23T12:21:18.071Z,5.80
2019-02-23T12:23:44.695Z,5.70
2019-02-23T12:26:10.949Z,5.80
2019-02-23T12:28:37.331Z,5.70
2019-02-23T12:31:03.589Z,5.80
2019-02-23T12:33:29.852Z,5.80
2019-02-23T12:35:56.155Z,5.90
2019-02-23T12:38:22.432Z,6.10
2019-02-23T12:40:48.693Z,6.10
2019-02-23T12:43:14.979Z,6.20
2019-02-23T12:45:41.241Z,6.20
2019-02-23T12:48:07.616Z,6.30
2019-02-23T12:50:33.887Z,6.40
2019-02-23T12:53:00.167Z,6.50
2019-02-23T12:55:26.453Z,6.50
2019-02-23T12:57:52.700Z,6.50
2019-02-23T13:00:19.227Z,6.60
2019-02-23T13:02:45.699Z,6.70
2019-02-23T13:05:12.461Z,6.70
2019-02-23T13:07:38.830Z,6.80
2019-02-23T13:10:11.406Z,6.80
2019-02-23T13:12:41.787Z,6.70
2019-02-23T13:15:24.159Z,6.80
2019-02-23T13:18:09.291Z,6.90
2019-02-23T13:20:51.363Z,7.00
2019-02-23T13:23:24.188Z,7.00
2019-02-23T13:26:06.542Z,7.00
2019-02-23T13:29:11.608Z,7.10
2019-02-23T13:31:53.607Z,7.10
2019-02-23T13:34:32.828Z,7.20
2019-02-23T13:37:25.782Z,7.30
2019-02-23T13:40:01.397Z,7.20
2019-02-23T13:42:55.422Z,7.20
2019-02-23T13:45:37.756Z,7.30
2019-02-23T13:48:21.214Z,7.40
2019-02-23T13:50:57.632Z,7.50
2019-02-23T13:53:56.213Z,7.50
2019-02-23T13:56:39.144Z,7.60
2019-02-23T13:59:29.365Z,7.70
2019-02-23T14:02:08.367Z,7.90
2019-02-23T14:04:50.483Z,8.20
2019-02-23T14:07:37.226Z,8.50
2019-02-23T14:10:12.846Z,8.70
2019-02-23T14:13:09.848Z,9.20
2019-02-23T14:15:42.536Z,9.50
2019-02-23T14:18:30.931Z,9.90
2019-02-23T14:21:16.322Z,10.30
2019-02-23T14:24:02.982Z,10.80
2019-02-23T14:26:54.522Z,11.30
2019-02-23T14:29:33.941Z,11.60
2019-02-23T14:32:04.002Z,12.00
2019-02-23T14:34:57.920Z,12.30
2019-02-23T14:37:34.220Z,12.50
2019-02-23T14:40:25.684Z,12.90
2019-02-23T14:43:13.848Z,13.20
2019-02-23T14:46:01.888Z,13.60
2019-02-23T14:48:51.997Z,13.70
2019-02-23T14:51:38.798Z,13.90
2019-02-23T14:54:20.391Z,14.10
2019-02-23T14:57:05.396Z,14.20
2019-02-23T14:59:38.439Z,14.20
2019-02-23T15:02:23.684Z,13.80
2019-02-23T15:05:08.858Z,13.20
2019-02-23T15:08:03.267Z,12.90
2019-02-23T15:10:47.940Z,12.60
2019-02-23T15:13:36.353Z,12.30
2019-02-23T15:16:23.036Z,11.80
2019-02-23T15:19:05.223Z,11.40
2019-02-23T15:21:35.280Z,11.20
2019-02-23T15:24:23.838Z,11.10
2019-02-23T15:26:56.664Z,10.90
2019-02-23T15:29:49.706Z,10.90
2019-02-23T15:32:53.293Z,11.00
2019-02-23T15:35:29.248Z,10.90
2019-02-23T15:38:20.015Z,10.90
2019-02-23T15:41:12.796Z,10.80
2019-02-23T15:43:47.770Z,11.00
2019-02-23T15:46:35.505Z,11.00
2019-02-23T15:49:11.633Z,10.90
2019-02-23T15:51:38.112Z,10.80
2019-02-23T15:54:04.442Z,10.70
2019-02-23T15:56:30.928Z,10.60
2019-02-23T15:58:57.240Z,10.50
2019-02-23T16:01:23.526Z,10.40
2019-02-23T16:03:49.804Z,10.30
2019-02-23T16:06:16.099Z,10.10
2019-02-23T16:08:42.497Z,9.90
2019-02-23T16:11:08.855Z,9.80
2019-02-23T16:13:35.127Z,9.60
2019-02-23T16:16:01.388Z,9.50
2019-02-23T16:18:27.779Z,9.40
2019-02-23T16:20:54.194Z,9.30
2019-02-23T16:23:20.537Z,9.10
2019-02-23T16:25:46.847Z,8.90
2019-02-23T16:28:13.232Z,8.60
2019-02-23T16:30:39.491Z,8.40
2019-02-23T16:33:05.743Z,8.10
2019-02-23T16:35:32.168Z,8.00
2019-02-23T16:37:58.427Z,7.90
2019-02-23T16:40:24.712Z,7.80
2019-02-23T16:42:51.104Z,7.60
2019-02-23T16:45:17.382Z,7.50
2019-02-23T16:47:43.758Z,7.40
2019-02-23T16:50:10.107Z,7.20
2019-02-23T16:52:36.439Z,7.10
2019-02-23T16:55:03.048Z,6.90
2019-02-23T16:57:29.381Z,6.80
2019-02-23T16:59:55.653Z,6.70
2019-02-23T17:02:21.960Z,6.60
2019-02-23T17:04:53.466Z,6.40
2019-02-23T17:07:16.414Z,6.30
2019-02-23T17:09:42.682Z,6.20
2019-02-23T17:12:08.915Z,6.10
2019-02-23T17:14:35.213Z,6.00
2019-02-23T17:17:01.527Z,5.90
2019-02-23T17:19:27.839Z,5.80
2019-02-23T17:21:54.104Z,5.70
2019-02-23T17:24:20.437Z,5.50
2019-02-23T17:26:46.770Z,5.50
2019-02-23T17:29:13.028Z,5.40
2019-02-23T17:31:39.299Z,5.20
2019-02-23T17:34:05.717Z,5.20
2019-02-23T17:36:32.026Z,5.00
2019-02-23T17:38:58.742Z,5.00
2019-02-23T17:41:26.018Z,4.90
2019-02-23T17:43:54.169Z,4.80
2019-02-23T17:46:20.443Z,4.70
2019-02-23T17:48:46.701Z,4.60
2019-02-23T17:51:13.496Z,4.40
2019-02-23T17:53:39.760Z,4.30
2019-02-23T17:56:12.178Z,4.10
2019-02-23T17:58:36.312Z,4.00
2019-02-23T18:01:04.092Z,3.80
2019-02-23T18:03:31.308Z,3.80
2019-02-23T18:05:57.697Z,3.70
2019-02-23T18:08:25.482Z,3.70
2019-02-23T18:10:51.736Z,3.60
2019-02-23T18:13:18.240Z,3.60
2019-02-23T18:15:44.663Z,3.50
2019-02-23T18:18:11.289Z,3.40
2019-02-23T18:20:37.557Z,3.40
2019-02-23T18:23:04.889Z,3.30
2019-02-23T18:25:31.597Z,3.30
2019-02-23T18:27:57.887Z,3.20
2019-02-23T18:30:24.236Z,3.20
2019-02-23T18:32:52.248Z,3.10
2019-02-23T18:35:19.730Z,3.10
2019-02-23T18:37:46.284Z,3.10
2019-02-23T18:40:12.563Z,3.00
2019-02-23T18:42:39.999Z,3.00
2019-02-23T18:45:28.450Z,3.00
2019-02-23T18:47:55.560Z,2.90
2019-02-23T18:50:21.867Z,2.90
2019-02-23T18:52:49.898Z,2.90
2019-02-23T18:55:16.989Z,2.80
2019-02-23T18:57:43.265Z,2.80
2019-02-23T19:00:11.284Z,2.70
2019-02-23T19:02:38.559Z,2.70
2019-02-23T19:05:08.547Z,2.70
2019-02-23T19:07:36.467Z,2.60
2019-02-23T19:10:06.583Z,2.60
2019-02-23T19:12:55.582Z,2.50
2019-02-23T19:15:22.343Z,2.50
2019-02-23T19:17:49.069Z,2.40
2019-02-23T19:20:15.468Z,2.30
2019-02-23T19:22:50.295Z,2.30
2019-02-23T19:25:18.043Z,2.20
2019-02-23T19:27:45.960Z,2.20
2019-02-23T19:30:14.052Z,2.10
2019-02-23T19:32:40.345Z,2.00
2019-02-23T19:35:07.823Z,2.00
2019-02-23T19:37:35.092Z,1.90
2019-02-23T19:40:02.424Z,1.80
2019-02-23T19:42:28.739Z,1.70
2019-02-23T19:44:55.030Z,1.60
2019-02-23T19:47:21.428Z,1.60
2019-02-23T19:49:47.755Z,1.60
2019-02-23T19:52:15.933Z,1.50
2019-02-23T19:54:42.323Z,1.40
2019-02-23T19:57:08.622Z,1.40
2019-02-23T19:59:34.984Z,1.30
2019-02-23T20:02:01.478Z,1.30
2019-02-23T20:04:27.944Z,1.30
2019-02-23T20:06:54.212Z,1.30
2019-02-23T20:09:20.531Z,1.20
2019-02-23T20:11:46.762Z,1.20
2019-02-23T20:14:13.033Z,1.20
2019-02-23T20:16:39.326Z,1.20
2019-02-23T20:19:05.599Z,1.10
2019-02-23T20:21:31.988Z,1.10
2019-02-23T20:23:58.300Z,1.00
2019-02-23T20:26:29.288Z,1.00
2019-02-23T20:28:55.567Z,0.90
2019-02-23T20:31:21.959Z,0.90
2019-02-23T20:33:48.247Z,0.80
2019-02-23T20:36:14.675Z,0.70
2019-02-23T20:38:40.948Z,0.60
2019-02-23T20:41:07.441Z,0.60
2019-02-23T20:43:33.809Z,0.60
2019-02-23T20:46:00.179Z,0.60
2019-02-23T20:48:26.452Z,0.60
2019-02-23T20:50:52.824Z,0.70
2019-02-23T20:53:19.182Z,0.70
2019-02-23T20:55:45.473Z,0.70
2019-02-23T20:58:11.749Z,0.70
2019-02-23T21:00:38.289Z,0.70
2019-02-23T21:03:04.535Z,0.70
2019-02-23T21:05:30.845Z,0.70
2019-02-23T21:07:57.223Z,0.70
2019-02-23T21:10:23.602Z,0.70
2019-02-23T21:12:50.002Z,0.70
2019-02-23T21:15:16.405Z,0.70
2019-02-23T21:17:42.740Z,0.70
2019-02-23T21:20:09.827Z,0.70
2019-02-23T21:22:36.276Z,0.70
2019-02-23T21:25:04.561Z,0.70
2019-02-23T21:27:30.846Z,0.70
2019-02-23T21:29:57.242Z,0.70
2019-02-23T21:32:23.515Z,0.70
2019-02-23T21:34:49.832Z,0.70
2019-02-23T21:37:16.121Z,0.70
2019-02-23T21:39:42.484Z,0.70
2019-02-23T21:42:08.797Z,0.60
2019-02-23T21:44:36.028Z,0.60
2019-02-23T21:47:02.410Z,0.60
2019-02-23T21:49:28.895Z,0.60
2019-02-23T21:51:55.156Z,0.60
2019-02-23T21:54:21.473Z,0.60
2019-02-23T21:56:47.778Z,0.60
2019-02-23T21:59:14.156Z,0.50
2019-02-23T22:01:40.451Z,0.50
2019-02-23T22:04:06.703Z,0.50
2019-02-23T22:06:33.004Z,0.50
2019-02-23T22:08:59.308Z,0.40
2019-02-23T22:11:25.613Z,0.40
2019-02-23T22:13:51.963Z,0.40
2019-02-23T22:16:18.380Z,0.30
2019-02-23T22:18:44.632Z,0.30
2019-02-23T22:21:10.893Z,0.20
2019-02-23T22:23:37.164Z,0.20
2019-02-23T22:26:03.566Z,0.10
2019-02-23T22:28:29.917Z,0.10
2019-02-23T22:30:56.208Z,0.10
2019-02-23T22:33:22.465Z,0.10
2019-02-23T22:35:49.037Z,0.00
2019-02-23T22:38:15.696Z,0.00
2019-02-23T22:40:42.065Z,0.00
2019-02-23T22:43:08.431Z,0.00
2019-02-23T22:45:34.720Z,-0.10
2019-02-23T22:48:01.092Z,-0.10
2019-02-23T22:50:27.407Z,-0.10
2019-02-23T22:52:53.685Z,-0.10
2019-02-23T22:55:20.076Z,-0.10
2019-02-23T22:57:46.335Z,-0.10
2019-02-23T23:00:14.664Z,-0.10
2019-02-23T23:02:41.227Z,-0.10
2019-02-23T23:05:07.723Z,0.00
2019-02-23T23:07:34.012Z,-0.10
2019-02-23T23:10:00.383Z,0.00
2019-02-23T23:12:26.656Z,-0.10
2019-02-23T23:14:52.926Z,-0.10
2019-02-23T23:17:19.312Z,-0.10
2019-02-23T23:19:46.507Z,-0.10
2019-02-23T23:22:12.907Z,-0.10
2019-02-23T23:24:39.169Z,-0.10
2019-02-23T23:27:05.473Z,-0.10
2019-02-23T23:29:31.836Z,-0.10
2019-02-23T23:31:58.128Z,-0.20
2019-02-23T23:34:24.437Z,-0.20
2019-02-23T23:36:50.926Z,-0.20
2019-02-23T23:39:17.620Z,-0.20
2019-02-23T23:41:43.888Z,-0.20
2019-02-23T23:44:10.156Z,-0.20
2019-02-23T23:46:36.446Z,-0.20
2019-02-23T23:49:02.719Z,-0.30
2019-02-23T23:51:29.036Z,-0.30
2019-02-23T23:53:55.414Z,-0.20
2019-02-23T23:56:21.660Z,-0.20
2019-02-23T23:58:47.957Z,-0.20
